Time;durP1;ratioP1;P1;durP2;ratioP2;P2;SDS_P1;SDS_P2;PMS_P1;PMS_P2;Temp;Humidity;BMP_temperature;BMP_pressure;BME280_temperature;BME280_humidity;BME280_pressure;Samples;Min_cycle;Max_cycle;Signal;HPM_P1;HPM_P2
2022/04/04 00:02:49;;;;;;;13.32;8.90;;;;;;;0.43;61.58;96302.69;10318765;28;97826;-60
2022/04/04 00:07:52;;;;;;;10.45;8.13;;;;;;;0.40;62.13;96302.88;10329506;28;96882;-61
2022/04/04 00:12:55;;;;;;;11.45;8.77;;;;;;;0.40;61.95;96303.69;10333015;28;97419;-60
2022/04/04 00:18:06;;;;;;;12.05;8.98;;;;;;;0.35;61.78;96292.81;10332117;28;96778;-60
2022/04/04 00:23:12;;;;;;;12.95;9.23;;;;;;;0.43;61.59;96295.00;10298997;28;100081;-60
2022/04/04 00:28:16;;;;;;;13.27;9.60;;;;;;;0.48;61.31;96305.00;10308155;28;97149;-60
2022/04/04 00:33:20;;;;;;;12.45;8.48;;;;;;;0.39;61.52;96303.75;10304585;28;96763;-60
2022/04/04 00:38:23;;;;;;;12.15;9.02;;;;;;;0.40;61.60;96297.72;10313833;28;100136;-60
2022/04/04 00:43:27;;;;;;;11.48;8.23;;;;;;;0.43;61.44;96293.25;10311994;28;97152;-61
2022/04/04 00:48:31;;;;;;;10.48;8.55;;;;;;;0.39;61.49;96294.34;10314363;28;96876;-60
2022/04/04 00:53:35;;;;;;;12.85;8.13;;;;;;;0.34;61.16;96280.91;10303822;28;96894;-60
2022/04/04 00:58:39;;;;;;;11.93;8.38;;;;;;;0.36;60.93;96283.41;10317597;28;96964;-60
2022/04/04 01:03:43;;;;;;;12.20;8.23;;;;;;;0.37;60.88;96277.31;10323680;28;96868;-60
2022/04/04 01:08:46;;;;;;;11.05;8.60;;;;;;;0.42;61.11;96278.72;10316263;28;97810;-60
2022/04/04 01:13:50;;;;;;;12.13;8.57;;;;;;;0.47;60.89;96267.38;10314054;28;96870;-60
2022/04/04 01:18:54;;;;;;;12.65;8.70;;;;;;;0.48;61.31;96277.56;10306789;28;97151;-60
2022/04/04 01:24:00;;;;;;;11.43;7.63;;;;;;;0.52;60.98;96273.09;10321745;28;96849;-60
2022/04/04 01:29:05;;;;;;;11.82;7.90;;;;;;;0.56;60.73;96272.00;10314166;28;96883;-60
2022/04/04 01:34:08;;;;;;;12.40;8.53;;;;;;;0.47;61.07;96269.94;10329635;28;96904;-60
2022/04/04 01:39:12;;;;;;;12.90;8.02;;;;;;;0.45;60.95;96257.19;10322684;28;96776;-60
2022/04/04 01:44:16;;;;;;;10.80;8.02;;;;;;;0.38;61.29;96261.81;10301792;28;96724;-60
2022/04/04 01:49:19;;;;;;;12.77;8.47;;;;;;;0.37;61.35;96265.28;10305675;28;96671;-60
2022/04/04 01:54:22;;;;;;;13.75;8.32;;;;;;;0.34;61.50;96267.22;10319263;28;97956;-60
2022/04/04 01:59:26;;;;;;;13.25;8.73;;;;;;;0.23;62.74;96270.38;10320503;28;100731;-60
2022/04/04 02:04:29;;;;;;;11.38;8.93;;;;;;;0.18;63.15;96274.94;10324228;28;98539;-60
2022/04/04 02:09:32;;;;;;;13.73;9.52;;;;;;;0.18;63.43;96273.19;10321395;28;97001;-60
2022/04/04 02:14:36;;;;;;;12.35;9.35;;;;;;;0.11;63.94;96281.31;10312406;28;96990;-61
2022/04/04 02:19:39;;;;;;;12.18;8.80;;;;;;;0.15;63.71;96275.94;10336210;28;96789;-60
2022/04/04 02:24:42;;;;;;;11.80;8.63;;;;;;;0.20;63.30;96273.09;10327000;28;97321;-60
2022/04/04 02:29:46;;;;;;;9.25;7.50;;;;;;;0.28;63.01;96270.13;10304358;28;101743;-60
2022/04/04 02:34:49;;;;;;;12.02;8.85;;;;;;;0.28;62.60;96265.00;10317426;28;97638;-60
2022/04/04 02:39:52;;;;;;;11.20;8.30;;;;;;;0.36;62.28;96268.78;10321024;28;96798;-60
2022/04/04 02:44:56;;;;;;;12.07;8.60;;;;;;;0.32;62.11;96262.16;10305889;28;96719;-60
2022/04/04 02:49:59;;;;;;;12.40;9.02;;;;;;;0.30;62.12;96269.13;10309024;28;96671;-60
2022/04/04 02:56:28;;;;;;;11.77;8.65;;;;;;;0.22;62.83;96271.31;10320573;28;96869;-60
2022/04/04 03:00:27;;;;;;;11.55;8.80;;;;;;;0.03;64.21;96272.28;10307872;28;96922;-60
2022/04/04 03:05:30;;;;;;;13.00;8.60;;;;;;;0.04;64.60;96268.78;10303966;28;96781;-60
2022/04/04 03:10:33;;;;;;;12.07;8.38;;;;;;;0.11;64.65;96278.75;10327786;28;98954;-60
2022/04/04 03:15:38;;;;;;;12.85;9.05;;;;;;;0.17;64.19;96274.13;10334215;28;96821;-60
2022/04/04 03:20:41;;;;;;;13.95;8.48;;;;;;;0.20;63.55;96273.09;10318419;28;96957;-60
2022/04/04 03:25:44;;;;;;;13.05;8.80;;;;;;;0.15;64.15;96268.22;10318969;28;97482;-60
2022/04/04 03:30:49;;;;;;;11.55;8.35;;;;;;;0.11;64.15;96263.34;10310183;28;96957;-60
2022/04/04 03:35:52;;;;;;;13.27;8.32;;;;;;;0.11;64.37;96260.75;10318804;28;96695;-60
2022/04/04 03:40:56;;;;;;;14.30;9.00;;;;;;;0.02;64.44;96265.47;10315832;28;99762;-60
2022/04/04 03:46:00;;;;;;;12.02;8.60;;;;;;;-0.04;64.27;96265.81;10309121;28;97018;-60
2022/04/04 03:51:04;;;;;;;11.88;7.93;;;;;;;0.01;63.58;96270.69;10303880;28;97484;-60
2022/04/04 03:56:07;;;;;;;12.07;8.00;;;;;;;-0.02;65.03;96268.31;10309723;28;96826;-60
2022/04/04 04:01:12;;;;;;;12.02;8.93;;;;;;;-0.10;65.10;96260.19;10309412;28;97377;-60
2022/04/04 04:06:16;;;;;;;11.95;8.55;;;;;;;-0.15;66.12;96262.97;10305585;28;96772;-60
2022/04/04 04:11:20;;;;;;;10.25;7.80;;;;;;;-0.17;65.41;96275.09;10305816;28;96888;-60
2022/04/04 04:16:24;;;;;;;12.48;8.65;;;;;;;-0.25;65.98;96269.50;10305982;28;97090;-60
2022/04/04 04:21:27;;;;;;;10.63;8.10;;;;;;;-0.26;65.80;96266.13;10304836;28;97017;-60
2022/04/04 04:26:30;;;;;;;13.52;8.95;;;;;;;-0.23;65.87;96275.38;10299833;28;96845;-60
2022/04/04 04:31:34;;;;;;;13.80;8.88;;;;;;;-0.28;66.75;96267.13;10308197;28;96854;-60
2022/04/04 04:36:39;;;;;;;14.97;9.30;;;;;;;-0.31;66.91;96265.53;10310673;28;96798;-60
2022/04/04 04:41:45;;;;;;;15.40;9.07;;;;;;;-0.31;66.59;96264.72;10314944;28;97561;-60
2022/04/04 04:46:49;;;;;;;12.07;8.40;;;;;;;-0.29;66.44;96265.47;10306377;28;97187;-60
2022/04/04 04:51:52;;;;;;;12.73;8.50;;;;;;;-0.30;65.92;96268.94;10308602;28;96811;-60
2022/04/04 04:56:55;;;;;;;12.18;8.63;;;;;;;-0.29;65.47;96273.97;10335489;28;96765;-60
2022/04/04 05:01:59;;;;;;;12.18;8.85;;;;;;;-0.28;65.57;96273.09;10320655;28;96743;-60
2022/04/04 05:07:02;;;;;;;13.38;9.20;;;;;;;-0.28;65.59;96272.25;10308654;28;96874;-60
2022/04/04 05:12:06;;;;;;;14.00;9.43;;;;;;;-0.25;65.17;96272.09;10328898;28;98021;-60
2022/04/04 05:17:10;;;;;;;13.10;9.57;;;;;;;-0.20;64.87;96286.34;10299534;28;96950;-60
2022/04/04 05:22:14;;;;;;;14.15;8.68;;;;;;;-0.14;64.96;96287.75;10314481;28;96821;-60
2022/04/04 05:27:17;;;;;;;13.45;8.45;;;;;;;-0.12;64.42;96283.38;10329353;28;96823;-60
2022/04/04 05:32:21;;;;;;;13.25;9.40;;;;;;;-0.08;64.95;96294.31;10316086;28;96691;-60
2022/04/04 05:37:25;;;;;;;15.43;8.88;;;;;;;-0.09;65.38;96293.50;10312737;28;97292;-60
2022/04/04 05:42:29;;;;;;;12.45;9.43;;;;;;;-0.05;65.67;96294.97;10311398;28;99763;-60
2022/04/04 05:47:33;;;;;;;13.37;8.77;;;;;;;0.00;64.53;96282.72;10305915;28;96944;-60
2022/04/04 05:52:37;;;;;;;13.70;9.77;;;;;;;0.10;65.20;96289.91;10334729;28;96783;-60
2022/04/04 05:57:40;;;;;;;11.65;8.90;;;;;;;0.12;65.32;96290.69;10336673;28;96988;-60
2022/04/04 06:02:47;;;;;;;12.95;9.52;;;;;;;0.27;64.93;96294.16;10336625;28;97402;-60
2022/04/04 06:07:50;;;;;;;13.65;9.38;;;;;;;0.35;64.60;96303.09;10332367;28;96987;-60
2022/04/04 06:12:53;;;;;;;13.85;10.07;;;;;;;0.40;64.56;96308.81;10312791;28;96839;-60
2022/04/04 06:17:57;;;;;;;15.05;10.23;;;;;;;0.53;65.00;96321.00;10320039;28;97378;-60
2022/04/04 06:23:01;;;;;;;12.63;8.97;;;;;;;0.58;65.69;96324.16;10329818;28;101814;-60
2022/04/04 06:28:12;;;;;;;14.10;9.20;;;;;;;0.73;65.15;96323.31;10323543;28;97076;-60
2022/04/04 06:33:16;;;;;;;12.40;10.00;;;;;;;0.86;64.98;96325.19;10314182;28;97088;-60
2022/04/04 06:38:19;;;;;;;14.50;9.70;;;;;;;0.98;64.58;96321.91;10306412;28;96707;-60
2022/04/04 06:43:22;;;;;;;12.75;9.32;;;;;;;1.17;64.03;96329.41;10334119;28;97835;-60
2022/04/04 06:48:27;;;;;;;12.60;9.63;;;;;;;1.32;63.66;96331.13;10334432;28;96994;-60
2022/04/04 06:53:30;;;;;;;14.35;9.65;;;;;;;1.54;62.45;96325.56;10315323;28;96917;-60
2022/04/04 06:58:33;;;;;;;15.30;9.88;;;;;;;1.71;62.49;96332.28;10311947;28;96880;-60
2022/04/04 07:03:38;;;;;;;13.13;10.18;;;;;;;1.74;62.38;96326.13;10310541;28;96852;-60
2022/04/04 07:08:40;;;;;;;13.20;9.48;;;;;;;1.99;61.82;96332.38;10311056;28;96722;-60
2022/04/04 07:13:44;;;;;;;12.35;9.30;;;;;;;2.24;61.38;96339.44;10307734;28;97471;-60
2022/04/04 07:18:49;;;;;;;13.83;9.97;;;;;;;2.46;61.48;96336.38;10309889;28;97051;-60
2022/04/04 07:23:53;;;;;;;13.90;9.93;;;;;;;2.38;61.14;96344.56;10316892;28;96807;-60
2022/04/04 07:28:56;;;;;;;13.63;10.10;;;;;;;2.55;60.78;96342.72;10334497;28;96931;-60
2022/04/04 07:34:01;;;;;;;11.90;9.48;;;;;;;2.64;60.02;96339.56;10332754;28;97064;-60
2022/04/04 07:39:05;;;;;;;13.13;9.47;;;;;;;2.73;60.30;96335.56;10312802;28;98294;-60
2022/04/04 07:44:09;;;;;;;13.10;8.88;;;;;;;2.80;60.60;96342.81;10302122;28;99844;-60
2022/04/04 07:49:13;;;;;;;13.55;9.70;;;;;;;2.89;60.10;96341.38;10321767;28;96820;-60
2022/04/04 07:54:16;;;;;;;13.43;9.70;;;;;;;3.09;59.26;96352.22;10316769;28;96943;-60
2022/04/04 07:59:18;;;;;;;11.68;9.38;;;;;;;3.04;59.36;96345.56;10303050;28;96779;-60
2022/04/04 08:04:23;;;;;;;12.18;8.82;;;;;;;3.24;59.02;96346.06;10305208;28;97570;-60
2022/04/04 08:09:26;;;;;;;12.20;9.38;;;;;;;2.88;58.70;96344.91;10321508;28;97783;-61
2022/04/04 08:14:29;;;;;;;12.27;8.93;;;;;;;2.74;58.72;96352.72;10333420;28;96961;-60
2022/04/04 08:19:35;;;;;;;11.80;8.75;;;;;;;2.64;58.66;96342.94;10331452;28;96898;-60
2022/04/04 08:24:38;;;;;;;11.68;9.27;;;;;;;2.46;59.21;96338.97;10311280;28;96790;-60
2022/04/04 08:29:42;;;;;;;12.48;9.52;;;;;;;2.43;58.68;96339.16;10300357;28;96759;-60
2022/04/04 08:34:46;;;;;;;13.95;9.73;;;;;;;2.33;58.94;96332.91;10306044;28;96731;-60
2022/04/04 08:39:49;;;;;;;12.73;9.87;;;;;;;2.25;59.20;96335.94;10306836;28;98398;-60
2022/04/04 08:44:54;;;;;;;14.45;9.82;;;;;;;2.41;59.51;96331.50;10301745;28;96709;-60
2022/04/04 09:05:06;;;;;;;12.57;9.75;;;;;;;4.58;56.57;96329.25;10483165;27;97731;-65
2022/04/04 09:10:13;;;;;;;12.07;9.43;;;;;;;5.15;55.97;96327.75;10454168;27;96909;-64
2022/04/04 09:15:16;;;;;;;10.20;8.48;;;;;;;5.53;55.80;96324.06;10453254;27;97066;-64
2022/04/04 09:20:20;;;;;;;10.32;8.07;;;;;;;5.83;54.57;96322.72;10456621;27;96846;-64
2022/04/04 09:25:32;;;;;;;13.13;9.02;;;;;;;5.85;53.33;96319.06;10459335;27;96982;-65
2022/04/04 09:30:35;;;;;;;11.63;9.02;;;;;;;6.09;53.99;96313.78;10462210;27;96849;-65
2022/04/04 09:35:47;;;;;;;11.18;8.30;;;;;;;6.03;52.49;96316.81;10464250;27;96727;-64
2022/04/04 09:40:50;;;;;;;11.05;8.40;;;;;;;6.19;52.79;96313.06;10471379;27;96893;-64
2022/04/04 09:46:10;;;;;;;11.38;8.55;;;;;;;6.71;51.35;96319.38;10465021;27;97209;-65
2022/04/04 09:51:34;;;;;;;9.63;7.88;;;;;;;6.67;52.07;96312.75;10464803;27;96754;-64
2022/04/04 09:56:38;;;;;;;12.65;8.52;;;;;;;5.95;52.64;96313.16;10471372;27;96935;-64
2022/04/04 10:01:43;;;;;;;11.45;9.25;;;;;;;5.23;53.32;96307.28;10457244;27;96705;-65
2022/04/04 10:06:51;;;;;;;10.57;8.70;;;;;;;5.28;52.84;96302.59;10431533;27;97294;-64
2022/04/04 10:11:54;;;;;;;10.75;9.18;;;;;;;5.41;52.67;96306.84;10445940;27;98542;-64
2022/04/04 10:16:58;;;;;;;12.48;9.30;;;;;;;5.02;52.84;96298.50;10429867;27;97162;-64
2022/04/04 10:22:02;;;;;;;11.20;8.70;;;;;;;4.88;52.15;96289.16;10429759;27;96932;-64
2022/04/04 10:27:08;;;;;;;12.20;8.47;;;;;;;4.63;52.10;96284.91;10435245;27;99960;-64
2022/04/04 10:32:22;;;;;;;10.25;8.23;;;;;;;5.08;52.24;96279.91;10430002;27;97226;-64
2022/04/04 10:37:30;;;;;;;9.52;8.52;;;;;;;5.41;51.75;96273.16;10425920;27;98618;-64
2022/04/04 10:42:36;;;;;;;10.13;8.23;;;;;;;5.72;51.19;96267.34;10434611;27;97390;-64
2022/04/04 10:47:42;;;;;;;10.10;8.13;;;;;;;5.96;51.08;96274.16;10431057;27;98638;-64
2022/04/04 10:52:47;;;;;;;9.20;8.00;;;;;;;6.13;50.87;96256.47;10457304;27;96728;-64
2022/04/04 10:57:50;;;;;;;9.32;7.80;;;;;;;6.11;50.55;96255.78;10446352;27;98766;-65
2022/04/04 11:02:53;;;;;;;11.15;8.13;;;;;;;6.13;50.17;96252.13;10451616;27;96852;-64
2022/04/04 11:08:00;;;;;;;9.70;8.50;;;;;;;6.18;51.83;96249.16;10461725;27;98183;-63
2022/04/04 11:13:08;;;;;;;10.57;9.07;;;;;;;5.61;50.96;96245.78;10448680;27;97144;-64
2022/04/04 11:18:12;;;;;;;10.30;7.72;;;;;;;5.57;50.87;96242.59;10455821;27;97176;-64
2022/04/04 11:23:17;;;;;;;8.70;7.40;;;;;;;5.63;50.75;96231.75;10450927;27;100868;-64
2022/04/04 11:28:22;;;;;;;10.82;8.18;;;;;;;6.15;50.08;96229.47;10452982;27;97103;-64
2022/04/04 11:33:28;;;;;;;11.48;8.55;;;;;;;6.40;50.00;96218.00;10454201;27;97344;-66
2022/04/04 11:38:39;;;;;;;9.77;7.15;;;;;;;6.63;48.94;96218.72;10455994;27;98757;-67
2022/04/04 11:43:50;;;;;;;9.38;7.85;;;;;;;7.06;48.80;96211.84;10445638;27;97340;-66
2022/04/04 11:48:55;;;;;;;10.57;8.52;;;;;;;7.44;47.95;96196.59;10448397;27;96796;-67
2022/04/04 11:54:04;;;;;;;9.98;8.02;;;;;;;7.61;47.61;96209.00;10436666;27;100381;-67
2022/04/04 11:59:09;;;;;;;10.10;8.32;;;;;;;7.45;47.60;96190.44;10446538;27;97741;-64
2022/04/04 12:04:13;;;;;;;9.43;8.02;;;;;;;7.80;47.39;96182.25;10440282;27;96966;-63
2022/04/04 12:09:29;;;;;;;8.95;7.53;;;;;;;7.79;46.81;96188.41;10435811;27;96877;-64
2022/04/04 12:14:33;;;;;;;9.88;7.18;;;;;;;7.86;47.31;96179.13;10418832;28;97562;-65
2022/04/04 12:19:42;;;;;;;8.43;7.40;;;;;;;8.18;47.36;96179.88;10419976;27;96863;-63
2022/04/04 12:24:58;;;;;;;7.57;6.70;;;;;;;8.52;46.51;96177.72;10427325;27;97005;-64
2022/04/04 12:30:05;;;;;;;8.32;6.82;;;;;;;8.54;46.03;96166.22;10429987;27;97191;-64
2022/04/04 12:35:09;;;;;;;7.57;6.70;;;;;;;8.52;46.49;96159.50;10424782;27;96992;-63
2022/04/04 12:40:18;;;;;;;8.88;7.00;;;;;;;8.28;45.71;96146.91;10426753;27;96916;-63
2022/04/04 12:45:21;;;;;;;10.02;7.45;;;;;;;8.17;46.52;96140.03;10426813;27;96856;-63
2022/04/04 12:50:25;;;;;;;7.63;6.50;;;;;;;8.50;46.16;96135.41;10422372;27;96902;-65
2022/04/04 12:55:30;;;;;;;9.43;6.85;;;;;;;8.65;45.92;96120.16;10427413;27;96922;-64
2022/04/04 13:00:38;;;;;;;7.97;6.70;;;;;;;8.93;45.23;96115.84;10447802;27;96771;-64
2022/04/04 13:05:47;;;;;;;7.82;6.70;;;;;;;9.13;44.95;96113.22;10429769;27;96753;-63
2022/04/04 13:11:09;;;;;;;8.20;6.43;;;;;;;9.32;44.98;96105.34;10424608;27;100128;-63
2022/04/04 13:16:30;;;;;;;9.23;6.90;;;;;;;9.45;44.56;96105.03;10421350;27;96936;-63
2022/04/04 13:21:34;;;;;;;7.90;6.72;;;;;;;9.87;44.06;96099.34;10443242;27;99108;-63
2022/04/04 13:26:40;;;;;;;8.05;6.88;;;;;;;10.45;42.94;96085.03;10427726;27;96800;-63
2022/04/04 13:31:46;;;;;;;7.78;6.95;;;;;;;10.68;42.34;96080.13;10429521;27;97033;-63
2022/04/04 13:36:49;;;;;;;7.65;6.60;;;;;;;11.11;41.43;96078.47;10426044;27;96999;-63
2022/04/04 13:41:54;;;;;;;6.80;5.80;;;;;;;12.52;39.94;96071.84;10445232;27;97047;-63
2022/04/04 13:46:56;;;;;;;7.57;6.17;;;;;;;13.70;38.41;96071.28;10428711;27;96754;-63
2022/04/04 13:51:59;;;;;;;9.38;6.32;;;;;;;15.11;37.70;96067.47;10436634;27;96889;-64
2022/04/04 13:57:04;;;;;;;6.85;6.10;;;;;;;16.28;35.87;96056.19;10450106;27;96849;-64
2022/04/04 14:02:07;;;;;;;;;;;;;;;16.50;36.32;96041.19;10427243;27;96883;-64
2022/04/04 14:07:10;;;;;;;6.20;5.60;;;;;;;17.15;34.78;96044.53;10449287;27;96737;-63
2022/04/04 14:12:14;;;;;;;7.47;6.07;;;;;;;18.43;32.94;96041.38;10438713;27;96884;-64
2022/04/04 14:17:20;;;;;;;5.90;5.30;;;;;;;19.62;32.23;96033.50;10426876;27;96936;-64
2022/04/04 14:22:23;;;;;;;6.20;5.60;;;;;;;20.00;31.36;96028.25;10431717;27;96933;-64
2022/04/04 14:27:28;;;;;;;6.03;5.47;;;;;;;20.45;31.13;96031.88;10430823;27;96979;-64
2022/04/04 14:32:31;;;;;;;6.07;5.45;;;;;;;19.86;30.81;96025.91;10425456;27;97278;-64
2022/04/04 14:37:35;;;;;;;5.05;4.65;;;;;;;19.88;30.48;96027.31;10430649;27;96795;-64
2022/04/04 14:42:40;;;;;;;5.35;4.82;;;;;;;19.91;29.75;96010.97;10433725;27;97151;-64
2022/04/04 14:47:43;;;;;;;6.05;5.32;;;;;;;20.61;29.32;96002.16;10430564;27;96995;-64
2022/04/04 14:52:46;;;;;;;5.20;4.70;;;;;;;20.44;29.45;96007.19;10428906;27;97832;-64
2022/04/04 14:57:51;;;;;;;5.40;4.88;;;;;;;20.72;28.73;95998.81;10436021;27;97059;-64
2022/04/04 15:02:54;;;;;;;5.28;4.78;;;;;;;21.24;28.45;95998.53;10429452;27;97096;-64
2022/04/04 15:08:07;;;;;;;5.28;4.78;;;;;;;20.90;27.34;95978.66;10428238;27;96880;-64
2022/04/04 15:13:11;;;;;;;4.65;4.25;;;;;;;20.80;27.82;95996.94;10445251;27;97304;-64
2022/04/04 15:18:15;;;;;;;4.32;3.80;;;;;;;19.38;28.08;95990.81;10462612;27;96777;-64
2022/04/04 15:23:17;;;;;;;4.47;4.07;;;;;;;18.74;30.06;95983.56;10427787;27;97083;-64
2022/04/04 15:28:22;;;;;;;4.93;4.43;;;;;;;18.12;29.30;95987.22;10438135;27;97133;-64
2022/04/04 15:33:26;;;;;;;4.78;3.90;;;;;;;19.35;29.15;95980.63;10440090;27;97028;-65
2022/04/04 15:38:29;;;;;;;4.80;4.00;;;;;;;19.22;29.03;95981.47;10424175;27;97074;-66
2022/04/04 15:43:35;;;;;;;5.82;3.95;;;;;;;17.71;31.43;95984.66;10432728;27;96902;-65
2022/04/04 15:48:37;;;;;;;4.32;3.92;;;;;;;17.55;30.11;95980.53;10434095;27;97251;-64
2022/04/04 15:53:41;;;;;;;4.40;4.00;;;;;;;17.59;29.77;95975.69;10427524;27;96819;-64
2022/04/04 15:58:45;;;;;;;4.13;3.72;;;;;;;16.44;30.89;95981.28;10426922;27;96872;-65
2022/04/04 16:03:48;;;;;;;4.18;3.40;;;;;;;17.42;29.84;95980.47;10428577;27;101418;-65
2022/04/04 16:08:53;;;;;;;4.95;3.63;;;;;;;17.64;29.46;95974.06;10438590;27;98332;-64
2022/04/04 16:13:57;;;;;;;4.13;3.72;;;;;;;18.45;29.39;95973.22;10446400;27;97488;-64
2022/04/04 16:19:01;;;;;;;4.03;3.63;;;;;;;17.45;30.25;95974.81;10442365;27;97105;-64
2022/04/04 16:24:04;;;;;;;5.00;3.88;;;;;;;16.98;30.53;95983.31;10449401;27;97192;-64
2022/04/04 16:29:09;;;;;;;4.30;3.67;;;;;;;16.48;30.18;95979.91;10450538;27;96962;-64
2022/04/04 16:34:12;;;;;;;4.30;3.90;;;;;;;16.31;30.54;95984.66;10449020;27;97404;-64
2022/04/04 16:39:15;;;;;;;5.63;4.53;;;;;;;16.25;31.87;95980.13;10440522;27;96787;-65
2022/04/04 16:44:21;;;;;;;4.40;3.90;;;;;;;15.82;32.07;95983.56;10447145;27;97020;-65
2022/04/04 16:49:24;;;;;;;6.35;4.07;;;;;;;15.05;32.71;95982.22;10443122;27;96906;-64
2022/04/04 16:54:27;;;;;;;4.85;3.83;;;;;;;15.20;32.61;95978.75;10446420;27;96930;-64
2022/04/04 16:59:31;;;;;;;4.85;4.25;;;;;;;15.23;32.22;95981.03;10441342;27;96940;-66
2022/04/04 17:04:34;;;;;;;5.05;3.97;;;;;;;15.42;31.87;95977.00;10429202;27;96802;-64
2022/04/04 17:09:37;;;;;;;5.53;4.10;;;;;;;13.46;34.61;95988.25;10430278;27;96751;-64
2022/04/04 17:14:41;;;;;;;5.85;4.00;;;;;;;11.22;37.43;95985.84;10444233;27;96816;-64
2022/04/04 17:19:44;;;;;;;5.53;4.13;;;;;;;9.96;39.47;95986.25;10434239;27;100056;-63
2022/04/04 17:24:47;;;;;;;4.53;3.80;;;;;;;9.05;39.68;95987.03;10455794;27;97019;-64
2022/04/04 17:29:53;;;;;;;5.78;4.97;;;;;;;8.48;41.05;95991.50;10451462;27;100157;-64
2022/04/04 17:34:56;;;;;;;4.45;3.95;;;;;;;8.07;41.07;95991.72;10453279;27;98483;-63
2022/04/04 17:40:01;;;;;;;4.85;4.00;;;;;;;7.64;42.45;95985.13;10436555;27;100139;-63
2022/04/04 17:45:06;;;;;;;;;;;;;;;7.37;41.67;95996.19;10455672;27;98054;-63
2022/04/04 17:50:09;;;;;;;6.22;4.40;;;;;;;6.93;43.46;95993.03;10441104;27;98172;-63
2022/04/04 17:55:12;;;;;;;6.70;4.45;;;;;;;6.66;44.96;95995.25;10439691;27;100756;-62
2022/04/04 18:00:17;;;;;;;6.55;4.93;;;;;;;6.41;45.31;96001.66;10438600;27;98940;-63
2022/04/04 18:05:20;;;;;;;6.10;4.80;;;;;;;6.03;45.86;96005.63;10431042;27;99476;-63
2022/04/04 18:10:23;;;;;;;6.95;4.80;;;;;;;5.63;47.08;96006.28;10437231;27;97198;-64
2022/04/04 18:15:27;;;;;;;4.22;3.83;;;;;;;5.39;47.67;96010.81;10440231;27;97499;-63
2022/04/04 18:20:31;;;;;;;7.70;4.27;;;;;;;4.99;48.48;96014.75;10445990;27;100863;-64
2022/04/04 18:25:34;;;;;;;5.05;4.07;;;;;;;4.55;50.36;96014.63;10441334;27;96879;-63
2022/04/04 18:30:38;;;;;;;4.63;3.97;;;;;;;4.13;51.96;96019.50;10444243;27;99271;-62
2022/04/04 18:35:42;;;;;;;12.45;8.25;;;;;;;3.96;51.56;96030.25;10428033;27;98555;-64
2022/04/04 18:40:45;;;;;;;5.43;3.60;;;;;;;3.73;52.11;96024.19;10448822;27;97391;-64
2022/04/04 18:45:49;;;;;;;5.97;4.30;;;;;;;3.34;53.95;96026.91;10439471;27;98405;-63
2022/04/04 18:50:54;;;;;;;4.30;3.60;;;;;;;2.88;55.44;96035.28;10431501;27;96960;-62
2022/04/04 18:55:57;;;;;;;5.53;3.53;;;;;;;2.75;54.90;96035.28;10437938;27;98588;-63
2022/04/04 19:01:01;;;;;;;5.07;3.70;;;;;;;2.62;55.04;96045.63;10439618;27;98377;-63
2022/04/04 19:06:06;;;;;;;5.60;3.53;;;;;;;2.46;55.58;96055.34;10437430;27;98405;-64
2022/04/04 19:11:09;;;;;;;6.38;4.55;;;;;;;2.36;55.84;96056.88;10442391;27;97877;-63
2022/04/04 19:16:13;;;;;;;7.00;4.78;;;;;;;2.15;56.74;96059.09;10441609;27;98456;-62
2022/04/04 19:21:16;;;;;;;5.57;3.30;;;;;;;2.01;56.82;96070.28;10435768;27;98502;-63
2022/04/04 19:26:19;;;;;;;4.28;3.00;;;;;;;1.85;56.80;96068.72;10433098;27;97447;-62
2022/04/04 19:31:27;;;;;;;5.93;3.55;;;;;;;1.64;57.38;96075.22;10433884;27;98501;-62
2022/04/04 19:36:30;;;;;;;4.72;3.78;;;;;;;1.62;57.00;96079.66;10438544;27;97246;-63
2022/04/04 19:41:34;;;;;;;3.60;2.90;;;;;;;1.69;56.81;96078.34;10450510;27;97049;-66
2022/04/04 19:46:38;;;;;;;4.22;2.90;;;;;;;1.38;58.35;96072.53;10443899;27;98814;-63
2022/04/04 19:51:41;;;;;;;11.52;8.20;;;;;;;1.23;58.14;96076.09;10452070;27;96963;-62
2022/04/04 19:56:44;;;;;;;11.32;7.13;;;;;;;1.24;57.21;96075.97;10435897;27;97990;-62
2022/04/04 20:01:49;;;;;;;7.07;5.00;;;;;;;1.22;57.62;96070.09;10438867;27;97789;-62
2022/04/04 20:06:53;;;;;;;6.33;4.77;;;;;;;1.23;57.50;96068.34;10430732;27;96905;-63
2022/04/04 20:11:56;;;;;;;8.65;5.38;;;;;;;1.08;57.78;96076.06;10437744;27;99020;-62
2022/04/04 20:17:00;;;;;;;7.35;4.88;;;;;;;0.83;58.54;96081.88;10442970;27;98631;-62
2022/04/04 20:22:04;;;;;;;9.87;6.10;;;;;;;0.63;59.16;96085.63;10442089;27;96985;-62
2022/04/04 20:27:07;;;;;;;8.43;5.13;;;;;;;0.37;60.88;96090.56;10436611;27;98265;-63
2022/04/04 20:32:11;;;;;;;7.93;5.75;;;;;;;0.46;60.04;96084.03;10457725;27;96981;-62
2022/04/04 20:37:16;;;;;;;6.45;3.70;;;;;;;0.51;59.50;96083.78;10436822;27;97335;-64
2022/04/04 20:42:22;;;;;;;6.28;3.33;;;;;;;0.57;59.49;96080.88;10451072;27;97296;-62
2022/04/04 20:47:26;;;;;;;5.10;3.40;;;;;;;0.68;58.85;96075.91;10432804;27;99565;-62
2022/04/04 20:52:30;;;;;;;10.37;4.60;;;;;;;0.84;58.30;96075.00;10447174;27;97091;-63
2022/04/04 20:57:32;;;;;;;6.32;3.95;;;;;;;1.03;57.90;96078.09;10446908;27;98825;-65
2022/04/04 21:02:37;;;;;;;5.75;3.90;;;;;;;1.20;57.81;96083.97;10444293;27;97174;-62
2022/04/04 21:07:40;;;;;;;6.53;4.32;;;;;;;1.21;57.25;96080.47;10447217;27;98590;-62
2022/04/04 21:12:43;;;;;;;5.32;3.55;;;;;;;1.16;57.67;96081.59;10441143;27;97411;-62
2022/04/04 21:17:47;;;;;;;3.53;2.03;;;;;;;1.12;58.69;96082.72;10446952;27;96837;-65
2022/04/04 21:22:50;;;;;;;4.72;2.78;;;;;;;1.11;59.03;96088.75;10450106;27;100853;-64
2022/04/04 21:27:53;;;;;;;4.00;2.83;;;;;;;1.10;58.93;96084.53;10438223;27;97718;-62
2022/04/04 21:32:59;;;;;;;7.72;3.10;;;;;;;1.21;58.96;96090.75;10450408;27;98450;-63
2022/04/04 21:38:02;;;;;;;4.07;2.72;;;;;;;1.39;58.07;96084.50;10449997;27;97771;-62
2022/04/04 21:43:05;;;;;;;6.72;3.28;;;;;;;1.65;57.46;96084.63;10440876;27;97252;-62
2022/04/04 21:48:09;;;;;;;5.63;3.10;;;;;;;1.71;57.68;96086.78;10446518;27;97722;-63
2022/04/04 21:53:12;;;;;;;4.97;2.92;;;;;;;1.78;57.37;96085.47;10450205;27;97581;-63
2022/04/04 21:58:15;;;;;;;4.65;3.05;;;;;;;1.91;57.59;96091.50;10447557;27;98075;-63
2022/04/04 22:03:19;;;;;;;5.93;3.88;;;;;;;2.01;57.42;96085.75;10446589;27;97129;-63
2022/04/04 22:08:23;;;;;;;5.07;3.70;;;;;;;2.13;56.96;96075.50;10456337;27;97386;-62
2022/04/04 22:13:26;;;;;;;7.00;4.60;;;;;;;2.26;56.90;96075.50;10455221;27;98982;-62
2022/04/04 22:18:31;;;;;;;4.78;3.25;;;;;;;2.09;58.27;96083.50;10448536;27;102911;-65
2022/04/04 22:23:33;;;;;;;8.13;5.35;;;;;;;1.90;58.99;96084.72;10456782;27;97320;-62
2022/04/04 22:28:37;;;;;;;8.27;5.45;;;;;;;2.01;58.89;96073.72;10449960;27;97967;-62
2022/04/04 22:33:41;;;;;;;8.20;4.97;;;;;;;2.15;58.95;96072.81;10444436;27;101117;-62
2022/04/04 22:38:44;;;;;;;5.22;3.97;;;;;;;2.13;58.70;96070.34;10448307;27;100071;-63
2022/04/04 22:43:47;;;;;;;11.13;5.70;;;;;;;2.18;59.37;96072.63;10451857;27;97209;-63
2022/04/04 22:48:51;;;;;;;7.57;5.38;;;;;;;2.30;59.31;96071.81;10439100;27;97764;-63
2022/04/04 22:53:54;;;;;;;9.52;6.57;;;;;;;2.43;58.25;96074.41;10453653;27;99012;-63
2022/04/04 22:59:01;;;;;;;9.65;6.70;;;;;;;2.52;58.80;96070.38;10446754;27;96856;-63
2022/04/04 23:04:06;;;;;;;8.73;6.75;;;;;;;2.48;59.18;96079.25;10448526;27;97516;-64
2022/04/04 23:09:09;;;;;;;8.87;5.80;;;;;;;2.52;59.40;96074.72;10452923;27;96871;-64
2022/04/04 23:14:12;;;;;;;8.10;5.47;;;;;;;2.40;59.34;96071.19;10444483;27;100928;-63
2022/04/04 23:19:16;;;;;;;12.77;7.47;;;;;;;2.36;59.31;96070.56;10441205;27;97250;-63
2022/04/04 23:24:19;;;;;;;12.40;7.50;;;;;;;2.45;59.49;96074.28;10450824;27;97691;-63
2022/04/04 23:29:22;;;;;;;10.43;6.20;;;;;;;2.56;59.77;96060.69;10448378;27;97344;-65
2022/04/04 23:34:26;;;;;;;8.95;6.63;;;;;;;2.48;60.48;96063.78;10455946;27;103720;-63
2022/04/04 23:39:29;;;;;;;10.20;6.28;;;;;;;2.19;61.24;96066.53;10439882;27;97617;-63
2022/04/04 23:44:32;;;;;;;8.63;5.45;;;;;;;2.21;61.02;96051.78;10448347;27;100727;-63
2022/04/04 23:49:36;;;;;;;7.78;5.63;;;;;;;2.19;62.00;96050.25;10450172;27;96889;-63
2022/04/04 23:54:39;;;;;;;9.25;5.85;;;;;;;2.33;61.45;96044.19;10448716;27;96784;-63